sensor_id;sensor_type;location;lat;lon;timestamp;temperature;humidity
9219;DHT22;4644;48.858;9.184;2024-03-07T00:02:15;5.70;99.90
9219;DHT22;4644;48.858;9.184;2024-03-07T00:04:43;5.70;99.90
9219;DHT22;4644;48.858;9.184;2024-03-07T00:07:10;5.70;99.90
9219;DHT22;4644;48.858;9.184;2024-03-07T00:09:38;5.60;99.90
9219;DHT22;4644;48.858;9.184;2024-03-07T00:12:06;5.60;99.90
9219;DHT22;4644;48.858;9.184;2024-03-07T00:14:34;5.60;99.90
9219;DHT22;4644;48.858;9.184;2024-03-07T00:17:01;5.50;99.90
9219;DHT22;4644;48.858;9.184;2024-03-07T00:19:29;5.50;99.90
9219;DHT22;4644;48.858;9.184;2024-03-07T00:21:57;5.50;99.90
9219;DHT22;4644;48.858;9.184;2024-03-07T00:24:24;5.50;99.90
9219;DHT22;4644;48.858;9.184;2024-03-07T00:26:54;5.40;99.90
9219;DHT22;4644;48.858;9.184;2024-03-07T00:29:23;5.40;99.90
9219;DHT22;4644;48.858;9.184;2024-03-07T00:31:50;5.40;99.90
9219;DHT22;4644;48.858;9.184;2024-03-07T00:34:17;5.40;99.90
9219;DHT22;4644;48.858;9.184;2024-03-07T00:36:45;5.50;99.90
9219;DHT22;4644;48.858;9.184;2024-03-07T00:39:12;5.40;99.90
9219;DHT22;4644;48.858;9.184;2024-03-07T00:41:40;5.50;99.90
9219;DHT22;4644;48.858;9.184;2024-03-07T00:44:08;5.40;99.90
9219;DHT22;4644;48.858;9.184;2024-03-07T00:46:36;5.40;99.90
9219;DHT22;4644;48.858;9.184;2024-03-07T00:49:03;5.30;99.90
9219;DHT22;4644;48.858;9.184;2024-03-07T00:51:30;5.20;99.90
9219;DHT22;4644;48.858;9.184;2024-03-07T00:53:58;5.20;99.90
9219;DHT22;4644;48.858;9.184;2024-03-07T00:56:25;5.20;99.90
9219;DHT22;4644;48.858;9.184;2024-03-07T00:58:52;5.10;99.90
9219;DHT22;4644;48.858;9.184;2024-03-07T01:01:20;5.00;99.90
9219;DHT22;4644;48.858;9.184;2024-03-07T01:03:47;4.90;99.90
9219;DHT22;4644;48.858;9.184;2024-03-07T01:06:14;4.90;99.90
9219;DHT22;4644;48.858;9.184;2024-03-07T01:08:42;4.80;99.90
9219;DHT22;4644;48.858;9.184;2024-03-07T01:11:09;4.70;99.90
9219;DHT22;4644;48.858;9.184;2024-03-07T01:13:38;4.70;99.90
9219;DHT22;4644;48.858;9.184;2024-03-07T01:16:05;4.60;99.90
9219;DHT22;4644;48.858;9.184;2024-03-07T01:18:34;4.60;99.90
9219;DHT22;4644;48.858;9.184;2024-03-07T01:21:02;4.50;99.90
9219;DHT22;4644;48.858;9.184;2024-03-07T01:23:31;4.40;99.90
9219;DHT22;4644;48.858;9.184;2024-03-07T01:25:59;4.40;99.90
9219;DHT22;4644;48.858;9.184;2024-03-07T01:28:27;4.40;99.90
9219;DHT22;4644;48.858;9.184;2024-03-07T01:30:56;4.30;99.90
9219;DHT22;4644;48.858;9.184;2024-03-07T01:33:24;4.30;99.90
9219;DHT22;4644;48.858;9.184;2024-03-07T01:35:52;4.20;99.90
9219;DHT22;4644;48.858;9.184;2024-03-07T01:38:20;4.20;99.90
9219;DHT22;4644;48.858;9.184;2024-03-07T01:40:47;4.10;99.90
9219;DHT22;4644;48.858;9.184;2024-03-07T01:43:14;4.10;99.90
9219;DHT22;4644;48.858;9.184;2024-03-07T01:45:41;4.10;99.90
9219;DHT22;4644;48.858;9.184;2024-03-07T01:48:09;4.00;99.90
9219;DHT22;4644;48.858;9.184;2024-03-07T01:50:38;4.00;99.90
9219;DHT22;4644;48.858;9.184;2024-03-07T01:53:10;3.90;99.90
9219;DHT22;4644;48.858;9.184;2024-03-07T01:55:38;3.90;99.90
9219;DHT22;4644;48.858;9.184;2024-03-07T01:58:06;3.80;99.90
9219;DHT22;4644;48.858;9.184;2024-03-07T02:00:35;3.80;99.90
9219;DHT22;4644;48.858;9.184;2024-03-07T02:03:02;3.70;99.90
9219;DHT22;4644;48.858;9.184;2024-03-07T02:05:33;3.70;99.90
9219;DHT22;4644;48.858;9.184;2024-03-07T02:08:00;3.70;99.90
9219;DHT22;4644;48.858;9.184;2024-03-07T02:10:43;3.60;99.90
9219;DHT22;4644;48.858;9.184;2024-03-07T02:13:10;3.60;99.90
9219;DHT22;4644;48.858;9.184;2024-03-07T02:15:37;3.50;99.90
9219;DHT22;4644;48.858;9.184;2024-03-07T02:18:04;3.50;99.90
9219;DHT22;4644;48.858;9.184;2024-03-07T02:20:32;3.50;99.90
9219;DHT22;4644;48.858;9.184;2024-03-07T02:23:00;3.40;99.90
9219;DHT22;4644;48.858;9.184;2024-03-07T02:25:28;3.40;99.90
9219;DHT22;4644;48.858;9.184;2024-03-07T02:27:56;3.40;99.90
9219;DHT22;4644;48.858;9.184;2024-03-07T02:30:23;3.40;99.90
9219;DHT22;4644;48.858;9.184;2024-03-07T02:32:50;3.30;99.90
9219;DHT22;4644;48.858;9.184;2024-03-07T02:35:20;3.30;99.90
9219;DHT22;4644;48.858;9.184;2024-03-07T02:37:47;3.30;99.90
9219;DHT22;4644;48.858;9.184;2024-03-07T02:40:17;3.20;99.90
9219;DHT22;4644;48.858;9.184;2024-03-07T02:42:44;3.20;99.90
9219;DHT22;4644;48.858;9.184;2024-03-07T02:45:12;3.20;99.90
9219;DHT22;4644;48.858;9.184;2024-03-07T02:47:40;3.10;99.90
9219;DHT22;4644;48.858;9.184;2024-03-07T02:50:10;3.10;99.90
9219;DHT22;4644;48.858;9.184;2024-03-07T02:52:37;3.10;99.90
9219;DHT22;4644;48.858;9.184;2024-03-07T02:55:05;3.10;99.90
9219;DHT22;4644;48.858;9.184;2024-03-07T02:57:37;3.10;99.90
9219;DHT22;4644;48.858;9.184;2024-03-07T03:00:05;3.00;99.90
9219;DHT22;4644;48.858;9.184;2024-03-07T03:02:45;3.00;99.90
9219;DHT22;4644;48.858;9.184;2024-03-07T03:05:13;3.00;99.90
9219;DHT22;4644;48.858;9.184;2024-03-07T03:07:41;3.00;99.90
9219;DHT22;4644;48.858;9.184;2024-03-07T03:10:19;3.00;99.90
9219;DHT22;4644;48.858;9.184;2024-03-07T03:12:47;3.00;99.90
9219;DHT22;4644;48.858;9.184;2024-03-07T03:15:15;2.90;99.90
9219;DHT22;4644;48.858;9.184;2024-03-07T03:17:46;2.90;99.90
9219;DHT22;4644;48.858;9.184;2024-03-07T03:20:13;2.90;99.90
9219;DHT22;4644;48.858;9.184;2024-03-07T03:25:37;2.90;99.90
9219;DHT22;4644;48.858;9.184;2024-03-07T03:28:06;2.90;99.90
9219;DHT22;4644;48.858;9.184;2024-03-07T03:30:36;2.80;99.90
9219;DHT22;4644;48.858;9.184;2024-03-07T03:33:04;2.80;99.90
9219;DHT22;4644;48.858;9.184;2024-03-07T03:35:31;2.80;99.90
9219;DHT22;4644;48.858;9.184;2024-03-07T03:37:59;2.70;99.90
9219;DHT22;4644;48.858;9.184;2024-03-07T03:40:26;2.70;99.90
9219;DHT22;4644;48.858;9.184;2024-03-07T03:42:53;2.70;99.90
9219;DHT22;4644;48.858;9.184;2024-03-07T03:45:22;2.70;99.90
9219;DHT22;4644;48.858;9.184;2024-03-07T03:47:51;2.70;99.90
9219;DHT22;4644;48.858;9.184;2024-03-07T03:50:18;2.70;99.90
9219;DHT22;4644;48.858;9.184;2024-03-07T03:52:45;2.60;99.90
9219;DHT22;4644;48.858;9.184;2024-03-07T03:55:12;2.60;99.90
9219;DHT22;4644;48.858;9.184;2024-03-07T03:57:44;2.60;99.90
9219;DHT22;4644;48.858;9.184;2024-03-07T04:00:13;2.50;99.90
9219;DHT22;4644;48.858;9.184;2024-03-07T04:02:42;2.50;99.90
9219;DHT22;4644;48.858;9.184;2024-03-07T04:05:10;2.50;99.90
9219;DHT22;4644;48.858;9.184;2024-03-07T04:07:39;2.60;99.90
9219;DHT22;4644;48.858;9.184;2024-03-07T04:10:08;2.60;99.90
9219;DHT22;4644;48.858;9.184;2024-03-07T04:12:35;2.60;99.90
9219;DHT22;4644;48.858;9.184;2024-03-07T04:15:03;2.60;99.90
9219;DHT22;4644;48.858;9.184;2024-03-07T04:17:31;2.50;99.90
9219;DHT22;4644;48.858;9.184;2024-03-07T04:20:00;2.50;99.90
9219;DHT22;4644;48.858;9.184;2024-03-07T04:22:28;2.50;99.90
9219;DHT22;4644;48.858;9.184;2024-03-07T04:24:55;2.50;99.90
9219;DHT22;4644;48.858;9.184;2024-03-07T04:27:22;2.50;99.90
9219;DHT22;4644;48.858;9.184;2024-03-07T04:29:51;2.50;99.90
9219;DHT22;4644;48.858;9.184;2024-03-07T04:32:18;2.50;99.90
9219;DHT22;4644;48.858;9.184;2024-03-07T04:34:46;2.50;99.90
9219;DHT22;4644;48.858;9.184;2024-03-07T04:37:14;2.40;99.90
9219;DHT22;4644;48.858;9.184;2024-03-07T04:39:42;2.40;99.90
9219;DHT22;4644;48.858;9.184;2024-03-07T04:42:09;2.40;99.90
9219;DHT22;4644;48.858;9.184;2024-03-07T04:44:37;2.40;99.90
9219;DHT22;4644;48.858;9.184;2024-03-07T04:47:05;2.40;99.90
9219;DHT22;4644;48.858;9.184;2024-03-07T04:49:33;2.30;99.90
9219;DHT22;4644;48.858;9.184;2024-03-07T04:52:02;2.30;99.90
9219;DHT22;4644;48.858;9.184;2024-03-07T04:54:32;2.30;99.90
9219;DHT22;4644;48.858;9.184;2024-03-07T04:57:00;2.20;99.90
9219;DHT22;4644;48.858;9.184;2024-03-07T04:59:27;2.20;99.90
9219;DHT22;4644;48.858;9.184;2024-03-07T05:01:55;2.20;99.90
9219;DHT22;4644;48.858;9.184;2024-03-07T05:04:22;2.20;99.90
9219;DHT22;4644;48.858;9.184;2024-03-07T05:06:55;2.10;99.90
9219;DHT22;4644;48.858;9.184;2024-03-07T05:09:23;2.10;99.90
9219;DHT22;4644;48.858;9.184;2024-03-07T05:11:53;2.10;99.90
9219;DHT22;4644;48.858;9.184;2024-03-07T05:14:20;2.10;99.90
9219;DHT22;4644;48.858;9.184;2024-03-07T05:16:48;2.00;99.90
9219;DHT22;4644;48.858;9.184;2024-03-07T05:19:32;2.00;99.90
9219;DHT22;4644;48.858;9.184;2024-03-07T05:21:59;2.00;99.90
9219;DHT22;4644;48.858;9.184;2024-03-07T05:24:27;2.00;99.90
9219;DHT22;4644;48.858;9.184;2024-03-07T05:26:55;2.00;99.90
9219;DHT22;4644;48.858;9.184;2024-03-07T05:29:23;2.00;99.90
9219;DHT22;4644;48.858;9.184;2024-03-07T05:31:50;1.90;99.90
9219;DHT22;4644;48.858;9.184;2024-03-07T05:34:17;1.90;99.90
9219;DHT22;4644;48.858;9.184;2024-03-07T05:36:46;1.90;99.90
9219;DHT22;4644;48.858;9.184;2024-03-07T05:39:14;1.90;99.90
9219;DHT22;4644;48.858;9.184;2024-03-07T05:41:43;1.80;99.90
9219;DHT22;4644;48.858;9.184;2024-03-07T05:44:13;1.80;99.90
9219;DHT22;4644;48.858;9.184;2024-03-07T05:49:26;1.80;99.90
9219;DHT22;4644;48.858;9.184;2024-03-07T05:51:56;1.80;99.90
9219;DHT22;4644;48.858;9.184;2024-03-07T05:54:23;1.80;99.90
9219;DHT22;4644;48.858;9.184;2024-03-07T05:56:50;1.80;99.90
9219;DHT22;4644;48.858;9.184;2024-03-07T05:59:19;1.80;99.90
9219;DHT22;4644;48.858;9.184;2024-03-07T06:01:47;1.80;99.90
9219;DHT22;4644;48.858;9.184;2024-03-07T06:04:16;1.70;99.90
9219;DHT22;4644;48.858;9.184;2024-03-07T06:06:43;1.70;99.90
9219;DHT22;4644;48.858;9.184;2024-03-07T06:09:11;1.70;99.90
9219;DHT22;4644;48.858;9.184;2024-03-07T06:11:40;1.70;99.90
9219;DHT22;4644;48.858;9.184;2024-03-07T06:14:09;1.70;99.90
9219;DHT22;4644;48.858;9.184;2024-03-07T06:16:40;1.70;99.90
9219;DHT22;4644;48.858;9.184;2024-03-07T06:19:08;1.70;99.90
9219;DHT22;4644;48.858;9.184;2024-03-07T06:21:36;1.70;99.90
9219;DHT22;4644;48.858;9.184;2024-03-07T06:24:05;1.70;99.90
9219;DHT22;4644;48.858;9.184;2024-03-07T06:26:36;1.80;99.90
9219;DHT22;4644;48.858;9.184;2024-03-07T06:29:19;1.80;99.90
9219;DHT22;4644;48.858;9.184;2024-03-07T06:31:48;1.80;99.90
9219;DHT22;4644;48.858;9.184;2024-03-07T06:34:16;1.80;99.90
9219;DHT22;4644;48.858;9.184;2024-03-07T06:36:43;1.90;99.90
9219;DHT22;4644;48.858;9.184;2024-03-07T06:39:10;1.90;99.90
9219;DHT22;4644;48.858;9.184;2024-03-07T06:41:38;1.90;99.90
9219;DHT22;4644;48.858;9.184;2024-03-07T06:44:05;1.90;99.90
9219;DHT22;4644;48.858;9.184;2024-03-07T06:46:33;2.00;99.90
9219;DHT22;4644;48.858;9.184;2024-03-07T06:49:02;2.00;99.90
9219;DHT22;4644;48.858;9.184;2024-03-07T06:51:31;2.10;99.90
9219;DHT22;4644;48.858;9.184;2024-03-07T06:53:58;2.20;99.90
9219;DHT22;4644;48.858;9.184;2024-03-07T06:56:25;2.30;99.90
9219;DHT22;4644;48.858;9.184;2024-03-07T06:58:52;2.30;99.90
9219;DHT22;4644;48.858;9.184;2024-03-07T07:01:20;2.40;99.90
9219;DHT22;4644;48.858;9.184;2024-03-07T07:03:47;2.60;99.90
9219;DHT22;4644;48.858;9.184;2024-03-07T07:06:16;2.60;99.90
9219;DHT22;4644;48.858;9.184;2024-03-07T07:08:43;2.80;99.90
9219;DHT22;4644;48.858;9.184;2024-03-07T07:11:11;2.90;99.90
9219;DHT22;4644;48.858;9.184;2024-03-07T07:13:38;3.10;99.90
9219;DHT22;4644;48.858;9.184;2024-03-07T07:16:07;3.20;99.90
9219;DHT22;4644;48.858;9.184;2024-03-07T07:18:35;3.40;99.90
9219;DHT22;4644;48.858;9.184;2024-03-07T07:21:03;3.50;99.90
9219;DHT22;4644;48.858;9.184;2024-03-07T07:23:33;3.60;99.90
9219;DHT22;4644;48.858;9.184;2024-03-07T07:26:00;3.80;99.90
9219;DHT22;4644;48.858;9.184;2024-03-07T07:28:28;3.90;99.90
9219;DHT22;4644;48.858;9.184;2024-03-07T07:30:55;4.10;99.90
9219;DHT22;4644;48.858;9.184;2024-03-07T07:33:22;4.20;99.90
9219;DHT22;4644;48.858;9.184;2024-03-07T07:35:49;4.50;99.90
9219;DHT22;4644;48.858;9.184;2024-03-07T07:38:17;4.70;99.90
9219;DHT22;4644;48.858;9.184;2024-03-07T07:40:46;4.80;99.90
9219;DHT22;4644;48.858;9.184;2024-03-07T07:43:13;4.90;99.90
9219;DHT22;4644;48.858;9.184;2024-03-07T07:45:40;5.00;99.90
9219;DHT22;4644;48.858;9.184;2024-03-07T07:48:07;5.10;99.90
9219;DHT22;4644;48.858;9.184;2024-03-07T07:50:37;5.20;99.90
9219;DHT22;4644;48.858;9.184;2024-03-07T07:53:04;5.00;99.90
9219;DHT22;4644;48.858;9.184;2024-03-07T07:55:34;5.00;99.90
9219;DHT22;4644;48.858;9.184;2024-03-07T07:58:03;5.10;99.90
9219;DHT22;4644;48.858;9.184;2024-03-07T08:00:31;5.20;99.90
9219;DHT22;4644;48.858;9.184;2024-03-07T08:02:59;5.20;99.90
9219;DHT22;4644;48.858;9.184;2024-03-07T08:05:27;5.30;99.90
9219;DHT22;4644;48.858;9.184;2024-03-07T08:07:56;5.40;99.90
9219;DHT22;4644;48.858;9.184;2024-03-07T08:10:24;5.50;99.90
9219;DHT22;4644;48.858;9.184;2024-03-07T08:12:54;5.40;99.90
9219;DHT22;4644;48.858;9.184;2024-03-07T08:15:24;5.30;99.90
9219;DHT22;4644;48.858;9.184;2024-03-07T08:17:51;5.10;99.90
9219;DHT22;4644;48.858;9.184;2024-03-07T08:20:21;4.90;99.90
9219;DHT22;4644;48.858;9.184;2024-03-07T08:22:50;4.90;99.90
9219;DHT22;4644;48.858;9.184;2024-03-07T08:25:19;5.00;99.90
9219;DHT22;4644;48.858;9.184;2024-03-07T08:27:48;5.20;99.90
9219;DHT22;4644;48.858;9.184;2024-03-07T08:30:15;5.30;99.90
9219;DHT22;4644;48.858;9.184;2024-03-07T08:32:46;5.70;99.90
9219;DHT22;4644;48.858;9.184;2024-03-07T08:35:13;5.90;99.90
9219;DHT22;4644;48.858;9.184;2024-03-07T08:37:42;6.00;99.90
9219;DHT22;4644;48.858;9.184;2024-03-07T08:40:10;5.90;99.90
9219;DHT22;4644;48.858;9.184;2024-03-07T08:42:52;5.80;99.90
9219;DHT22;4644;48.858;9.184;2024-03-07T08:45:21;5.70;99.90
9219;DHT22;4644;48.858;9.184;2024-03-07T08:47:50;5.80;99.90
9219;DHT22;4644;48.858;9.184;2024-03-07T08:50:18;5.70;99.90
9219;DHT22;4644;48.858;9.184;2024-03-07T08:52:45;5.70;99.90
9219;DHT22;4644;48.858;9.184;2024-03-07T08:55:14;5.80;99.90
9219;DHT22;4644;48.858;9.184;2024-03-07T08:57:43;5.70;99.90
9219;DHT22;4644;48.858;9.184;2024-03-07T09:00:12;5.80;99.90
9219;DHT22;4644;48.858;9.184;2024-03-07T09:02:50;5.80;99.90
9219;DHT22;4644;48.858;9.184;2024-03-07T09:05:19;5.70;99.90
9219;DHT22;4644;48.858;9.184;2024-03-07T09:07:48;5.80;99.90
9219;DHT22;4644;48.858;9.184;2024-03-07T09:10:15;5.70;99.90
9219;DHT22;4644;48.858;9.184;2024-03-07T09:12:43;5.70;99.90
9219;DHT22;4644;48.858;9.184;2024-03-07T09:15:10;5.80;99.90
9219;DHT22;4644;48.858;9.184;2024-03-07T09:17:38;5.70;99.90
9219;DHT22;4644;48.858;9.184;2024-03-07T09:20:09;5.60;99.90
9219;DHT22;4644;48.858;9.184;2024-03-07T09:22:40;5.60;99.90
9219;DHT22;4644;48.858;9.184;2024-03-07T09:25:08;5.50;99.90
9219;DHT22;4644;48.858;9.184;2024-03-07T09:27:35;5.80;99.90
9219;DHT22;4644;48.858;9.184;2024-03-07T09:30:03;5.90;99.90
9219;DHT22;4644;48.858;9.184;2024-03-07T09:32:30;6.00;99.90
9219;DHT22;4644;48.858;9.184;2024-03-07T09:34:59;5.90;99.90
9219;DHT22;4644;48.858;9.184;2024-03-07T09:37:28;6.00;99.90
9219;DHT22;4644;48.858;9.184;2024-03-07T09:39:56;5.90;99.90
9219;DHT22;4644;48.858;9.184;2024-03-07T09:42:26;6.20;99.90
9219;DHT22;4644;48.858;9.184;2024-03-07T09:44:55;6.10;99.90
9219;DHT22;4644;48.858;9.184;2024-03-07T09:47:23;6.30;99.90
9219;DHT22;4644;48.858;9.184;2024-03-07T09:49:51;6.50;99.90
9219;DHT22;4644;48.858;9.184;2024-03-07T09:52:20;6.50;99.90
9219;DHT22;4644;48.858;9.184;2024-03-07T09:54:48;6.60;99.90
9219;DHT22;4644;48.858;9.184;2024-03-07T09:57:16;6.70;99.90
9219;DHT22;4644;48.858;9.184;2024-03-07T09:59:46;6.80;99.90
9219;DHT22;4644;48.858;9.184;2024-03-07T10:02:18;7.10;99.90
9219;DHT22;4644;48.858;9.184;2024-03-07T10:04:48;7.40;99.90
9219;DHT22;4644;48.858;9.184;2024-03-07T10:07:18;7.30;99.90
9219;DHT22;4644;48.858;9.184;2024-03-07T10:09:47;7.50;99.90
9219;DHT22;4644;48.858;9.184;2024-03-07T10:12:15;7.80;99.90
9219;DHT22;4644;48.858;9.184;2024-03-07T10:14:48;7.90;99.90
9219;DHT22;4644;48.858;9.184;2024-03-07T10:17:17;7.90;99.90
9219;DHT22;4644;48.858;9.184;2024-03-07T10:19:47;8.00;99.90
9219;DHT22;4644;48.858;9.184;2024-03-07T10:22:16;8.30;99.90
9219;DHT22;4644;48.858;9.184;2024-03-07T10:25:00;8.30;99.90
9219;DHT22;4644;48.858;9.184;2024-03-07T10:27:28;8.50;99.90
9219;DHT22;4644;48.858;9.184;2024-03-07T10:29:55;8.30;99.90
9219;DHT22;4644;48.858;9.184;2024-03-07T10:32:24;8.00;99.90
9219;DHT22;4644;48.858;9.184;2024-03-07T10:34:51;7.90;99.90
9219;DHT22;4644;48.858;9.184;2024-03-07T10:37:19;8.00;99.90
9219;DHT22;4644;48.858;9.184;2024-03-07T10:39:47;8.00;99.90
9219;DHT22;4644;48.858;9.184;2024-03-07T10:42:17;8.10;99.90
9219;DHT22;4644;48.858;9.184;2024-03-07T10:44:45;8.10;99.90
9219;DHT22;4644;48.858;9.184;2024-03-07T10:47:16;8.30;99.90
9219;DHT22;4644;48.858;9.184;2024-03-07T10:52:48;8.30;99.90
9219;DHT22;4644;48.858;9.184;2024-03-07T10:55:24;8.20;99.90
9219;DHT22;4644;48.858;9.184;2024-03-07T10:58:04;8.30;99.90
9219;DHT22;4644;48.858;9.184;2024-03-07T11:00:35;8.30;99.90
9219;DHT22;4644;48.858;9.184;2024-03-07T11:03:05;8.10;99.90
9219;DHT22;4644;48.858;9.184;2024-03-07T11:05:34;8.00;99.90
9219;DHT22;4644;48.858;9.184;2024-03-07T11:08:02;8.00;99.90
9219;DHT22;4644;48.858;9.184;2024-03-07T11:10:44;8.10;99.90
9219;DHT22;4644;48.858;9.184;2024-03-07T11:13:14;8.10;99.90
9219;DHT22;4644;48.858;9.184;2024-03-07T11:15:45;8.00;99.90
9219;DHT22;4644;48.858;9.184;2024-03-07T11:18:13;7.90;99.90
9219;DHT22;4644;48.858;9.184;2024-03-07T11:20:41;7.90;99.90
9219;DHT22;4644;48.858;9.184;2024-03-07T11:23:25;8.00;99.90
9219;DHT22;4644;48.858;9.184;2024-03-07T11:25:54;8.20;99.90
9219;DHT22;4644;48.858;9.184;2024-03-07T11:28:39;8.40;99.90
9219;DHT22;4644;48.858;9.184;2024-03-07T11:34:13;8.70;99.90
9219;DHT22;4644;48.858;9.184;2024-03-07T11:36:44;8.90;99.90
9219;DHT22;4644;48.858;9.184;2024-03-07T11:42:09;9.50;99.90
9219;DHT22;4644;48.858;9.184;2024-03-07T11:44:38;9.30;99.90
9219;DHT22;4644;48.858;9.184;2024-03-07T11:47:05;9.20;99.90
9219;DHT22;4644;48.858;9.184;2024-03-07T11:49:36;9.20;99.90
9219;DHT22;4644;48.858;9.184;2024-03-07T11:52:04;9.10;99.90
9219;DHT22;4644;48.858;9.184;2024-03-07T11:54:37;9.10;99.90
9219;DHT22;4644;48.858;9.184;2024-03-07T11:57:11;9.00;99.90
9219;DHT22;4644;48.858;9.184;2024-03-07T11:59:41;9.00;99.90
9219;DHT22;4644;48.858;9.184;2024-03-07T12:02:12;8.90;99.90
9219;DHT22;4644;48.858;9.184;2024-03-07T12:04:39;8.80;99.90
9219;DHT22;4644;48.858;9.184;2024-03-07T12:07:07;8.70;99.90
9219;DHT22;4644;48.858;9.184;2024-03-07T12:09:50;8.70;99.90
9219;DHT22;4644;48.858;9.184;2024-03-07T12:12:20;8.60;99.90
9219;DHT22;4644;48.858;9.184;2024-03-07T12:14:51;8.50;99.90
9219;DHT22;4644;48.858;9.184;2024-03-07T12:17:20;8.50;99.90
9219;DHT22;4644;48.858;9.184;2024-03-07T12:19:48;8.50;99.90
9219;DHT22;4644;48.858;9.184;2024-03-07T12:22:19;8.30;99.90
9219;DHT22;4644;48.858;9.184;2024-03-07T12:24:52;8.30;99.90
9219;DHT22;4644;48.858;9.184;2024-03-07T12:27:29;8.30;99.90
9219;DHT22;4644;48.858;9.184;2024-03-07T12:29:59;8.30;99.90
9219;DHT22;4644;48.858;9.184;2024-03-07T12:32:33;8.20;99.90
9219;DHT22;4644;48.858;9.184;2024-03-07T12:35:00;8.00;99.90
9219;DHT22;4644;48.858;9.184;2024-03-07T12:37:34;7.90;99.90
9219;DHT22;4644;48.858;9.184;2024-03-07T12:40:11;7.80;99.90
9219;DHT22;4644;48.858;9.184;2024-03-07T12:42:58;7.80;99.90
9219;DHT22;4644;48.858;9.184;2024-03-07T12:45:28;7.80;99.90
9219;DHT22;4644;48.858;9.184;2024-03-07T12:47:55;7.70;99.90
9219;DHT22;4644;48.858;9.184;2024-03-07T12:50:23;7.60;99.90
9219;DHT22;4644;48.858;9.184;2024-03-07T12:52:50;7.70;99.90
9219;DHT22;4644;48.858;9.184;2024-03-07T12:55:18;7.70;99.90
9219;DHT22;4644;48.858;9.184;2024-03-07T12:57:47;7.60;99.90
9219;DHT22;4644;48.858;9.184;2024-03-07T13:00:16;7.60;99.90
9219;DHT22;4644;48.858;9.184;2024-03-07T13:02:50;7.60;99.90
9219;DHT22;4644;48.858;9.184;2024-03-07T13:05:17;7.60;99.90
9219;DHT22;4644;48.858;9.184;2024-03-07T13:07:51;7.70;99.90
9219;DHT22;4644;48.858;9.184;2024-03-07T13:10:19;7.50;99.90
9219;DHT22;4644;48.858;9.184;2024-03-07T13:12:46;7.50;99.90
9219;DHT22;4644;48.858;9.184;2024-03-07T13:15:15;7.70;99.90
9219;DHT22;4644;48.858;9.184;2024-03-07T13:17:42;7.60;99.90
9219;DHT22;4644;48.858;9.184;2024-03-07T13:20:12;7.70;99.90
9219;DHT22;4644;48.858;9.184;2024-03-07T13:22:40;7.70;99.90
9219;DHT22;4644;48.858;9.184;2024-03-07T13:25:10;7.80;99.90
9219;DHT22;4644;48.858;9.184;2024-03-07T13:27:44;7.80;99.90
9219;DHT22;4644;48.858;9.184;2024-03-07T13:30:17;7.80;99.90
9219;DHT22;4644;48.858;9.184;2024-03-07T13:32:59;7.80;99.90
9219;DHT22;4644;48.858;9.184;2024-03-07T13:35:28;7.80;99.90
9219;DHT22;4644;48.858;9.184;2024-03-07T13:37:56;7.80;99.90
9219;DHT22;4644;48.858;9.184;2024-03-07T13:40:24;7.80;99.90
9219;DHT22;4644;48.858;9.184;2024-03-07T13:43:06;7.90;99.90
9219;DHT22;4644;48.858;9.184;2024-03-07T13:45:35;7.90;99.90
9219;DHT22;4644;48.858;9.184;2024-03-07T13:48:06;7.90;99.90
9219;DHT22;4644;48.858;9.184;2024-03-07T13:50:36;7.90;99.90
9219;DHT22;4644;48.858;9.184;2024-03-07T13:53:17;7.90;99.90
9219;DHT22;4644;48.858;9.184;2024-03-07T14:02:04;8.10;99.90
9219;DHT22;4644;48.858;9.184;2024-03-07T14:31:59;8.60;99.90
9219;DHT22;4644;48.858;9.184;2024-03-07T14:34:46;8.60;99.90
9219;DHT22;4644;48.858;9.184;2024-03-07T14:37:31;8.70;99.90
9219;DHT22;4644;48.858;9.184;2024-03-07T14:40:15;8.70;99.90
9219;DHT22;4644;48.858;9.184;2024-03-07T14:42:44;8.80;99.90
9219;DHT22;4644;48.858;9.184;2024-03-07T14:45:14;8.70;99.90
9219;DHT22;4644;48.858;9.184;2024-03-07T14:47:45;8.60;99.90
9219;DHT22;4644;48.858;9.184;2024-03-07T14:50:14;8.60;99.90
9219;DHT22;4644;48.858;9.184;2024-03-07T14:52:42;8.60;99.90
9219;DHT22;4644;48.858;9.184;2024-03-07T14:55:11;8.60;99.90
9219;DHT22;4644;48.858;9.184;2024-03-07T14:57:39;8.60;99.90
9219;DHT22;4644;48.858;9.184;2024-03-07T15:00:07;8.50;99.90
9219;DHT22;4644;48.858;9.184;2024-03-07T15:02:46;8.60;99.90
9219;DHT22;4644;48.858;9.184;2024-03-07T15:05:14;8.60;99.90
9219;DHT22;4644;48.858;9.184;2024-03-07T15:07:42;8.70;99.90
9219;DHT22;4644;48.858;9.184;2024-03-07T15:10:16;8.60;99.90
9219;DHT22;4644;48.858;9.184;2024-03-07T15:12:44;8.50;99.90
9219;DHT22;4644;48.858;9.184;2024-03-07T15:15:12;8.50;99.90
9219;DHT22;4644;48.858;9.184;2024-03-07T15:17:40;8.40;99.90
9219;DHT22;4644;48.858;9.184;2024-03-07T15:20:10;8.40;99.90
9219;DHT22;4644;48.858;9.184;2024-03-07T15:22:48;8.30;99.90
9219;DHT22;4644;48.858;9.184;2024-03-07T15:25:16;8.20;99.90
9219;DHT22;4644;48.858;9.184;2024-03-07T15:27:57;8.30;99.90
9219;DHT22;4644;48.858;9.184;2024-03-07T15:30:26;8.30;99.90
9219;DHT22;4644;48.858;9.184;2024-03-07T15:33:07;8.30;99.90
9219;DHT22;4644;48.858;9.184;2024-03-07T15:35:37;8.30;99.90
9219;DHT22;4644;48.858;9.184;2024-03-07T15:38:04;8.20;99.90
9219;DHT22;4644;48.858;9.184;2024-03-07T15:40:32;8.10;99.90
9219;DHT22;4644;48.858;9.184;2024-03-07T15:42:59;8.00;99.90
9219;DHT22;4644;48.858;9.184;2024-03-07T15:45:40;8.00;99.90
9219;DHT22;4644;48.858;9.184;2024-03-07T15:48:07;7.90;99.90
9219;DHT22;4644;48.858;9.184;2024-03-07T15:50:38;8.00;99.90
9219;DHT22;4644;48.858;9.184;2024-03-07T15:53:05;8.00;99.90
9219;DHT22;4644;48.858;9.184;2024-03-07T15:55:32;8.00;99.90
9219;DHT22;4644;48.858;9.184;2024-03-07T15:58:01;8.00;99.90
9219;DHT22;4644;48.858;9.184;2024-03-07T16:00:43;8.00;99.90
9219;DHT22;4644;48.858;9.184;2024-03-07T16:03:12;7.90;99.90
9219;DHT22;4644;48.858;9.184;2024-03-07T16:05:42;7.80;99.90
9219;DHT22;4644;48.858;9.184;2024-03-07T16:08:13;7.70;99.90
9219;DHT22;4644;48.858;9.184;2024-03-07T16:10:41;7.70;99.90
9219;DHT22;4644;48.858;9.184;2024-03-07T16:13:09;7.80;99.90
9219;DHT22;4644;48.858;9.184;2024-03-07T16:15:38;7.70;99.90
9219;DHT22;4644;48.858;9.184;2024-03-07T16:18:24;7.70;99.90
9219;DHT22;4644;48.858;9.184;2024-03-07T16:20:53;7.60;99.90
9219;DHT22;4644;48.858;9.184;2024-03-07T16:23:21;7.60;99.90
9219;DHT22;4644;48.858;9.184;2024-03-07T16:25:48;7.50;99.90
9219;DHT22;4644;48.858;9.184;2024-03-07T16:28:16;7.60;99.90
9219;DHT22;4644;48.858;9.184;2024-03-07T16:30:46;7.50;99.90
9219;DHT22;4644;48.858;9.184;2024-03-07T16:33:13;7.50;99.90
9219;DHT22;4644;48.858;9.184;2024-03-07T16:35:42;7.50;99.90
9219;DHT22;4644;48.858;9.184;2024-03-07T16:38:12;7.40;99.90
9219;DHT22;4644;48.858;9.184;2024-03-07T16:40:39;7.40;99.90
9219;DHT22;4644;48.858;9.184;2024-03-07T16:43:08;7.40;99.90
9219;DHT22;4644;48.858;9.184;2024-03-07T16:45:36;7.40;99.90
9219;DHT22;4644;48.858;9.184;2024-03-07T16:48:05;7.40;99.90
9219;DHT22;4644;48.858;9.184;2024-03-07T16:50:35;7.40;99.90
9219;DHT22;4644;48.858;9.184;2024-03-07T16:53:06;7.40;99.90
9219;DHT22;4644;48.858;9.184;2024-03-07T16:55:36;7.30;99.90
9219;DHT22;4644;48.858;9.184;2024-03-07T16:58:03;7.30;99.90
9219;DHT22;4644;48.858;9.184;2024-03-07T17:00:31;7.30;99.90
9219;DHT22;4644;48.858;9.184;2024-03-07T17:02:59;7.30;99.90
9219;DHT22;4644;48.858;9.184;2024-03-07T17:05:26;7.30;99.90
9219;DHT22;4644;48.858;9.184;2024-03-07T17:07:54;7.30;99.90
9219;DHT22;4644;48.858;9.184;2024-03-07T17:10:22;7.30;99.90
9219;DHT22;4644;48.858;9.184;2024-03-07T17:12:51;7.40;99.90
9219;DHT22;4644;48.858;9.184;2024-03-07T17:15:20;7.30;99.90
9219;DHT22;4644;48.858;9.184;2024-03-07T17:17:48;7.30;99.90
9219;DHT22;4644;48.858;9.184;2024-03-07T17:20:18;7.20;99.90